<?xml version="1.0" encoding="UTF-8" standalone="no" ?><gpx xmlns="http://www.topografix.com/GPX/1/1" xmlns:gpxx="http://www.garmin.com/xmlschemas/GpxExtensions/v3" xmlns:wptx1="http://www.garmin.com/xmlschemas/WaypointExtension/v1" xmlns:gpxtpx="http://www.garmin.com/xmlschemas/TrackPointExtension/v1" creator="Dakota 20" version="1.1" xmlns:xsi="http://www.w3.org/2001/XMLSchema-instance" xsi:schemaLocation="http://www.topografix.com/GPX/1/1 http://www.topografix.com/GPX/1/1/gpx.xsd http://www.garmin.com/xmlschemas/GpxExtensions/v3 http://www8.garmin.com/xmlschemas/GpxExtensionsv3.xsd http://www.garmin.com/xmlschemas/WaypointExtension/v1 http://www8.garmin.com/xmlschemas/WaypointExtensionv1.xsd http://www.garmin.com/xmlschemas/TrackPointExtension/v1 http://www.garmin.com/xmlschemas/TrackPointExtensionv1.xsd"><metadata><link href="http://www.garmin.com"><text>Garmin International</text></link><time>2014-03-19T16:00:14Z</time></metadata><trk><name>Current Track: 19 MAR 2014 09:57</name><extensions><gpxx:TrackExtension><gpxx:DisplayColor>Cyan</gpxx:DisplayColor></gpxx:TrackExtension></extensions><trkseg><trkpt lat="51.7951377388" lon="-2.0501935668"><ele>254.89</ele><time>2014-03-19T09:57:18Z</time></trkpt><trkpt lat="51.7951366492" lon="-2.0501933154"><ele>256.81</ele><time>2014-03-19T09:57:20Z</time></trkpt><trkpt lat="51.7951246630" lon="-2.0502002724"><ele>256.33</ele><time>2014-03-19T09:57:25Z</time></trkpt><trkpt lat="51.7949621379" lon="-2.0504284278"><ele>254.41</ele><time>2014-03-19T09:57:37Z</time></trkpt><trkpt lat="51.7949043028" lon="-2.0507236384"><ele>255.85</ele><time>2014-03-19T09:57:52Z</time></trkpt><trkpt lat="51.7948913109" lon="-2.0509670489"><ele>255.85</ele><time>2014-03-19T09:58:07Z</time></trkpt><trkpt lat="51.7949550971" lon="-2.0512160752"><ele>256.33</ele><time>2014-03-19T09:58:26Z</time></trkpt><trkpt lat="51.7951110844" lon="-2.0511247963"><ele>256.81</ele><time>2014-03-19T09:58:44Z</time></trkpt><trkpt lat="51.7951233219" lon="-2.0511194319"><ele>256.33</ele><time>2014-03-19T09:58:45Z</time></trkpt><trkpt lat="51.7951906286" lon="-2.0510503650"><ele>256.81</ele><time>2014-03-19T09:59:01Z</time></trkpt><trkpt lat="51.7952145170" lon="-2.0510540530"><ele>256.33</ele><time>2014-03-19T09:59:11Z</time></trkpt><trkpt lat="51.7954187002" lon="-2.0509835612"><ele>257.29</ele><time>2014-03-19T09:59:27Z</time></trkpt><trkpt lat="51.7956221290" lon="-2.0509916078"><ele>256.33</ele><time>2014-03-19T09:59:44Z</time></trkpt><trkpt lat="51.7958074529" lon="-2.0510558970"><ele>256.33</ele><time>2014-03-19T10:00:00Z</time></trkpt><trkpt lat="51.7959872447" lon="-2.0511838887"><ele>256.33</ele><time>2014-03-19T10:00:20Z</time></trkpt><trkpt lat="51.7961038370" lon="-2.0512915961"><ele>255.37</ele><time>2014-03-19T10:00:37Z</time></trkpt><trkpt lat="51.7962271348" lon="-2.0514841285"><ele>255.85</ele><time>2014-03-19T10:00:56Z</time></trkpt><trkpt lat="51.7964040767" lon="-2.0516766608"><ele>254.41</ele><time>2014-03-19T10:01:17Z</time></trkpt><trkpt lat="51.7965716310" lon="-2.0518284570"><ele>253.93</ele><time>2014-03-19T10:01:35Z</time></trkpt><trkpt lat="51.7968116049" lon="-2.0520582050"><ele>253.44</ele><time>2014-03-19T10:02:00Z</time></trkpt><trkpt lat="51.7971384153" lon="-2.0519466419"><ele>252.96</ele><time>2014-03-19T10:02:24Z</time></trkpt><trkpt lat="51.7971937358" lon="-2.0517092664"><ele>252.00</ele><time>2014-03-19T10:02:44Z</time></trkpt><trkpt lat="51.7970483936" lon="-2.0515456516"><ele>252.00</ele><time>2014-03-19T10:03:04Z</time></trkpt><trkpt lat="51.7974358890" lon="-2.0510222856"><ele>253.44</ele><time>2014-03-19T10:03:24Z</time></trkpt><trkpt lat="51.7975421716" lon="-2.0507916994"><ele>254.41</ele><time>2014-03-19T10:03:38Z</time></trkpt><trkpt lat="51.7976895254" lon="-2.0504652243"><ele>255.85</ele><time>2014-03-19T10:04:01Z</time></trkpt><trkpt lat="51.7978094704" lon="-2.0501555968"><ele>256.81</ele><time>2014-03-19T10:04:23Z</time></trkpt><trkpt lat="51.7978180200" lon="-2.0501265954"><ele>256.33</ele><time>2014-03-19T10:04:26Z</time></trkpt><trkpt lat="51.7979576625" lon="-2.0499435347"><ele>257.29</ele><time>2014-03-19T10:04:45Z</time></trkpt><trkpt lat="51.7981488537" lon="-2.0497609768"><ele>257.29</ele><time>2014-03-19T10:05:07Z</time></trkpt><trkpt lat="51.7983116303" lon="-2.0496531855"><ele>258.25</ele><time>2014-03-19T10:05:27Z</time></trkpt><trkpt lat="51.7984863929" lon="-2.0495555364"><ele>259.69</ele><time>2014-03-19T10:05:47Z</time></trkpt><trkpt lat="51.7985326611" lon="-2.0495561231"><ele>261.14</ele><time>2014-03-19T10:05:53Z</time></trkpt><trkpt lat="51.7985725589" lon="-2.0495489985"><ele>259.69</ele><time>2014-03-19T10:05:57Z</time></trkpt><trkpt lat="51.7987634148" lon="-2.0495501719"><ele>261.62</ele><time>2014-03-19T10:06:17Z</time></trkpt><trkpt lat="51.7989497446" lon="-2.0495645888"><ele>262.10</ele><time>2014-03-19T10:06:35Z</time></trkpt><trkpt lat="51.7991447076" lon="-2.0495686121"><ele>263.54</ele><time>2014-03-19T10:06:54Z</time></trkpt><trkpt lat="51.7993768863" lon="-2.0495654270"><ele>263.54</ele><time>2014-03-19T10:07:18Z</time></trkpt><trkpt lat="51.7996169440" lon="-2.0495360065"><ele>264.50</ele><time>2014-03-19T10:07:42Z</time></trkpt><trkpt lat="51.7998291738" lon="-2.0495114475"><ele>264.98</ele><time>2014-03-19T10:08:01Z</time></trkpt><trkpt lat="51.8000454269" lon="-2.0494826138"><ele>264.98</ele><time>2014-03-19T10:08:24Z</time></trkpt><trkpt lat="51.8002585787" lon="-2.0494787581"><ele>265.94</ele><time>2014-03-19T10:08:43Z</time></trkpt><trkpt lat="51.8004627619" lon="-2.0494438894"><ele>265.94</ele><time>2014-03-19T10:09:04Z</time></trkpt><trkpt lat="51.8006723933" lon="-2.0494556241"><ele>266.42</ele><time>2014-03-19T10:09:23Z</time></trkpt><trkpt lat="51.8008891493" lon="-2.0494359266"><ele>266.90</ele><time>2014-03-19T10:09:43Z</time></trkpt><trkpt lat="51.8010779936" lon="-2.0494629163"><ele>267.38</ele><time>2014-03-19T10:10:02Z</time></trkpt><trkpt lat="51.8012803327" lon="-2.0494774170"><ele>267.38</ele><time>2014-03-19T10:10:24Z</time></trkpt><trkpt lat="51.8015322089" lon="-2.0495517645"><ele>267.38</ele><time>2014-03-19T10:10:45Z</time></trkpt><trkpt lat="51.8017425109" lon="-2.0495611522"><ele>267.86</ele><time>2014-03-19T10:11:07Z</time></trkpt><trkpt lat="51.8019186985" lon="-2.0495593082"><ele>268.83</ele><time>2014-03-19T10:11:27Z</time></trkpt><trkpt lat="51.8021698203" lon="-2.0495600626"><ele>268.35</ele><time>2014-03-19T10:11:50Z</time></trkpt><trkpt lat="51.8023960479" lon="-2.0495706238"><ele>267.38</ele><time>2014-03-19T10:12:11Z</time></trkpt><trkpt lat="51.8026117980" lon="-2.0495244395"><ele>267.38</ele><time>2014-03-19T10:12:32Z</time></trkpt><trkpt lat="51.8028586451" lon="-2.0494987909"><ele>267.86</ele><time>2014-03-19T10:12:54Z</time></trkpt><trkpt lat="51.8030485790" lon="-2.0494846255"><ele>267.38</ele><time>2014-03-19T10:13:13Z</time></trkpt><trkpt lat="51.8032674305" lon="-2.0494650956"><ele>268.83</ele><time>2014-03-19T10:13:33Z</time></trkpt><trkpt lat="51.8033991940" lon="-2.0494310651"><ele>267.38</ele><time>2014-03-19T10:13:48Z</time></trkpt><trkpt lat="51.8036028743" lon="-2.0494034886"><ele>268.35</ele><time>2014-03-19T10:14:07Z</time></trkpt><trkpt lat="51.8037838396" lon="-2.0493777562"><ele>267.86</ele><time>2014-03-19T10:14:25Z</time></trkpt><trkpt lat="51.8039883580" lon="-2.0493219327"><ele>267.38</ele><time>2014-03-19T10:14:46Z</time></trkpt><trkpt lat="51.8041647971" lon="-2.0492618345"><ele>266.90</ele><time>2014-03-19T10:15:05Z</time></trkpt><trkpt lat="51.8043677229" lon="-2.0492179971"><ele>266.42</ele><time>2014-03-19T10:15:25Z</time></trkpt><trkpt lat="51.8045309186" lon="-2.0491024945"><ele>265.94</ele><time>2014-03-19T10:15:42Z</time></trkpt><trkpt lat="51.8047442380" lon="-2.0490304939"><ele>264.50</ele><time>2014-03-19T10:16:03Z</time></trkpt><trkpt lat="51.8049607426" lon="-2.0489745867"><ele>263.06</ele><time>2014-03-19T10:16:22Z</time></trkpt><trkpt lat="51.8051430490" lon="-2.0489226189"><ele>263.06</ele><time>2014-03-19T10:16:42Z</time></trkpt><trkpt lat="51.8051655125" lon="-2.0489330124"><ele>262.58</ele><time>2014-03-19T10:16:44Z</time></trkpt><trkpt lat="51.8052667659" lon="-2.0489515364"><ele>261.62</ele><time>2014-03-19T10:16:54Z</time></trkpt><trkpt lat="51.8054293748" lon="-2.0489596669"><ele>260.17</ele><time>2014-03-19T10:17:08Z</time></trkpt><trkpt lat="51.8056064006" lon="-2.0489802025"><ele>257.29</ele><time>2014-03-19T10:17:24Z</time></trkpt><trkpt lat="51.8057752959" lon="-2.0490439050"><ele>255.85</ele><time>2014-03-19T10:17:41Z</time></trkpt><trkpt lat="51.8059707619" lon="-2.0491345134"><ele>253.93</ele><time>2014-03-19T10:18:01Z</time></trkpt><trkpt lat="51.8061414175" lon="-2.0492273849"><ele>251.52</ele><time>2014-03-19T10:18:21Z</time></trkpt><trkpt lat="51.8062866759" lon="-2.0493677817"><ele>250.08</ele><time>2014-03-19T10:18:39Z</time></trkpt><trkpt lat="51.8064309284" lon="-2.0493955258"><ele>248.64</ele><time>2014-03-19T10:18:57Z</time></trkpt><trkpt lat="51.8064394780" lon="-2.0494053327"><ele>248.64</ele><time>2014-03-19T10:18:58Z</time></trkpt><trkpt lat="51.8065682240" lon="-2.0495244395"><ele>246.23</ele><time>2014-03-19T10:19:14Z</time></trkpt><trkpt lat="51.8067703117" lon="-2.0496212505"><ele>243.35</ele><time>2014-03-19T10:19:32Z</time></trkpt><trkpt lat="51.8069413863" lon="-2.0496520959"><ele>239.99</ele><time>2014-03-19T10:19:51Z</time></trkpt><trkpt lat="51.8071465753" lon="-2.0497221686"><ele>238.54</ele><time>2014-03-19T10:20:09Z</time></trkpt><trkpt lat="51.8072947673" lon="-2.0497526787"><ele>238.06</ele><time>2014-03-19T10:20:24Z</time></trkpt><trkpt lat="51.8075025547" lon="-2.0498017967"><ele>238.06</ele><time>2014-03-19T10:20:44Z</time></trkpt><trkpt lat="51.8075113557" lon="-2.0498041436"><ele>237.10</ele><time>2014-03-19T10:20:45Z</time></trkpt><trkpt lat="51.8077205680" lon="-2.0498549379"><ele>238.06</ele><time>2014-03-19T10:21:02Z</time></trkpt><trkpt lat="51.8078600429" lon="-2.0499498211"><ele>240.95</ele><time>2014-03-19T10:21:19Z</time></trkpt><trkpt lat="51.8079959974" lon="-2.0500329696"><ele>244.31</ele><time>2014-03-19T10:21:35Z</time></trkpt><trkpt lat="51.8081087340" lon="-2.0501427725"><ele>247.20</ele><time>2014-03-19T10:21:55Z</time></trkpt><trkpt lat="51.8082596920" lon="-2.0501332171"><ele>247.68</ele><time>2014-03-19T10:22:13Z</time></trkpt><trkpt lat="51.8084908649" lon="-2.0501356479"><ele>250.08</ele><time>2014-03-19T10:22:34Z</time></trkpt><trkpt lat="51.8086490314" lon="-2.0500849374"><ele>251.04</ele><time>2014-03-19T10:22:54Z</time></trkpt><trkpt lat="51.8088186812" lon="-2.0500242524"><ele>251.04</ele><time>2014-03-19T10:23:12Z</time></trkpt><trkpt lat="51.8089973833" lon="-2.0499533415"><ele>252.48</ele><time>2014-03-19T10:23:35Z</time></trkpt><trkpt lat="51.8092853855" lon="-2.0499264356"><ele>252.96</ele><time>2014-03-19T10:23:57Z</time></trkpt><trkpt lat="51.8094397802" lon="-2.0499055646"><ele>252.48</ele><time>2014-03-19T10:24:15Z</time></trkpt><trkpt lat="51.8095662631" lon="-2.0496630762"><ele>252.96</ele><time>2014-03-19T10:24:35Z</time></trkpt><trkpt lat="51.8095761538" lon="-2.0496315602"><ele>251.52</ele><time>2014-03-19T10:24:37Z</time></trkpt><trkpt lat="51.8095663469" lon="-2.0494683646"><ele>251.52</ele><time>2014-03-19T10:24:57Z</time></trkpt><trkpt lat="51.8095706217" lon="-2.0494523551"><ele>251.04</ele><time>2014-03-19T10:25:22Z</time></trkpt><trkpt lat="51.8095767405" lon="-2.0494482480"><ele>251.52</ele><time>2014-03-19T10:25:41Z</time></trkpt><trkpt lat="51.8095771596" lon="-2.0494464878"><ele>251.04</ele><time>2014-03-19T10:25:58Z</time></trkpt><trkpt lat="51.8095489126" lon="-2.0494234376"><ele>251.52</ele><time>2014-03-19T10:26:21Z</time></trkpt><trkpt lat="51.8095422070" lon="-2.0494292211"><ele>250.56</ele><time>2014-03-19T10:26:22Z</time></trkpt><trkpt lat="51.8095136248" lon="-2.0494879782"><ele>250.56</ele><time>2014-03-19T10:26:45Z</time></trkpt><trkpt lat="51.8095484097" lon="-2.0494490024"><ele>251.52</ele><time>2014-03-19T10:27:07Z</time></trkpt><trkpt lat="51.8095504213" lon="-2.0494445600"><ele>252.00</ele><time>2014-03-19T10:27:26Z</time></trkpt><trkpt lat="51.8095515948" lon="-2.0494150557"><ele>251.52</ele><time>2014-03-19T10:27:47Z</time></trkpt><trkpt lat="51.8095533550" lon="-2.0494324062"><ele>251.04</ele><time>2014-03-19T10:27:54Z</time></trkpt><trkpt lat="51.8094445579" lon="-2.0493987110"><ele>250.56</ele><time>2014-03-19T10:28:13Z</time></trkpt><trkpt lat="51.8092855532" lon="-2.0492796879"><ele>250.56</ele><time>2014-03-19T10:28:32Z</time></trkpt><trkpt lat="51.8092526123" lon="-2.0493304823"><ele>250.08</ele><time>2014-03-19T10:28:48Z</time></trkpt></trkseg><trkseg><trkpt lat="51.8093227688" lon="-2.0489741676"><ele>249.12</ele><time>2014-03-19T10:33:41Z</time></trkpt><trkpt lat="51.8092452362" lon="-2.0491504390"><ele>250.08</ele><time>2014-03-19T10:33:55Z</time></trkpt><trkpt lat="51.8092780933" lon="-2.0491361059"><ele>250.08</ele><time>2014-03-19T10:34:14Z</time></trkpt><trkpt lat="51.8092955276" lon="-2.0492644329"><ele>251.04</ele><time>2014-03-19T10:34:29Z</time></trkpt><trkpt lat="51.8093641754" lon="-2.0492990501"><ele>250.56</ele><time>2014-03-19T10:34:49Z</time></trkpt><trkpt lat="51.8094057497" lon="-2.0491040032"><ele>251.04</ele><time>2014-03-19T10:35:07Z</time></trkpt><trkpt lat="51.8093991280" lon="-2.0491620060"><ele>250.56</ele><time>2014-03-19T10:35:28Z</time></trkpt><trkpt lat="51.8095118646" lon="-2.0492050890"><ele>251.52</ele><time>2014-03-19T10:35:49Z</time></trkpt><trkpt lat="51.8095645867" lon="-2.0491957851"><ele>251.52</ele><time>2014-03-19T10:36:07Z</time></trkpt><trkpt lat="51.8095821887" lon="-2.0491148159"><ele>252.00</ele><time>2014-03-19T10:36:23Z</time></trkpt><trkpt lat="51.8097137846" lon="-2.0489877462"><ele>252.48</ele><time>2014-03-19T10:36:37Z</time></trkpt><trkpt lat="51.8098955881" lon="-2.0488368720"><ele>252.48</ele><time>2014-03-19T10:36:52Z</time></trkpt><trkpt lat="51.8099247571" lon="-2.0488084573"><ele>252.00</ele><time>2014-03-19T10:36:55Z</time></trkpt><trkpt lat="51.8101198878" lon="-2.0486072078"><ele>252.00</ele><time>2014-03-19T10:37:13Z</time></trkpt><trkpt lat="51.8102811556" lon="-2.0485098939"><ele>252.96</ele><time>2014-03-19T10:37:29Z</time></trkpt><trkpt lat="51.8103035353" lon="-2.0485202875"><ele>252.00</ele><time>2014-03-19T10:37:52Z</time></trkpt><trkpt lat="51.8103124201" lon="-2.0485056192"><ele>252.96</ele><time>2014-03-19T10:38:16Z</time></trkpt><trkpt lat="51.8103403319" lon="-2.0484952256"><ele>252.96</ele><time>2014-03-19T10:38:32Z</time></trkpt><trkpt lat="51.8104063813" lon="-2.0484844968"><ele>252.96</ele><time>2014-03-19T10:38:50Z</time></trkpt><trkpt lat="51.8105155136" lon="-2.0483742747"><ele>252.96</ele><time>2014-03-19T10:39:04Z</time></trkpt><trkpt lat="51.8106645439" lon="-2.0482902881"><ele>253.44</ele><time>2014-03-19T10:39:22Z</time></trkpt><trkpt lat="51.8108124007" lon="-2.0482568443"><ele>253.44</ele><time>2014-03-19T10:39:40Z</time></trkpt><trkpt lat="51.8109901808" lon="-2.0482436009"><ele>253.44</ele><time>2014-03-19T10:39:56Z</time></trkpt><trkpt lat="51.8111471739" lon="-2.0482544973"><ele>253.93</ele><time>2014-03-19T10:40:12Z</time></trkpt><trkpt lat="51.8111867364" lon="-2.0482691657"><ele>253.93</ele><time>2014-03-19T10:40:17Z</time></trkpt><trkpt lat="51.8113112077" lon="-2.0482814033"><ele>254.89</ele><time>2014-03-19T10:40:32Z</time></trkpt><trkpt lat="51.8114782590" lon="-2.0482928026"><ele>255.85</ele><time>2014-03-19T10:40:49Z</time></trkpt><trkpt lat="51.8115003034" lon="-2.0482643042"><ele>254.89</ele><time>2014-03-19T10:40:52Z</time></trkpt><trkpt lat="51.8116333243" lon="-2.0481825806"><ele>256.33</ele><time>2014-03-19T10:41:11Z</time></trkpt><trkpt lat="51.8117080070" lon="-2.0480447821"><ele>255.85</ele><time>2014-03-19T10:41:32Z</time></trkpt><trkpt lat="51.8118018005" lon="-2.0479044691"><ele>254.89</ele><time>2014-03-19T10:41:48Z</time></trkpt><trkpt lat="51.8118235096" lon="-2.0477413572"><ele>253.44</ele><time>2014-03-19T10:42:07Z</time></trkpt><trkpt lat="51.8119004555" lon="-2.0474758185"><ele>252.96</ele><time>2014-03-19T10:42:25Z</time></trkpt><trkpt lat="51.8119274452" lon="-2.0472671092"><ele>252.00</ele><time>2014-03-19T10:42:42Z</time></trkpt><trkpt lat="51.8119809218" lon="-2.0469965413"><ele>251.52</ele><time>2014-03-19T10:42:59Z</time></trkpt><trkpt lat="51.8120445404" lon="-2.0467783604"><ele>251.52</ele><time>2014-03-19T10:43:17Z</time></trkpt><trkpt lat="51.8120437860" lon="-2.0467448328"><ele>251.52</ele><time>2014-03-19T10:43:32Z</time></trkpt><trkpt lat="51.8120229989" lon="-2.0466364548"><ele>250.56</ele><time>2014-03-19T10:43:47Z</time></trkpt><trkpt lat="51.8119532615" lon="-2.0465856604"><ele>248.16</ele><time>2014-03-19T10:44:05Z</time></trkpt><trkpt lat="51.8118310533" lon="-2.0464807190"><ele>246.72</ele><time>2014-03-19T10:44:19Z</time></trkpt><trkpt lat="51.8118619826" lon="-2.0463722572"><ele>247.68</ele><time>2014-03-19T10:44:37Z</time></trkpt><trkpt lat="51.8119376712" lon="-2.0462197904"><ele>247.68</ele><time>2014-03-19T10:44:52Z</time></trkpt><trkpt lat="51.8120959215" lon="-2.0459372364"><ele>248.16</ele><time>2014-03-19T10:45:13Z</time></trkpt><trkpt lat="51.8121881224" lon="-2.0457005315"><ele>250.08</ele><time>2014-03-19T10:45:31Z</time></trkpt><trkpt lat="51.8122324627" lon="-2.0453699492"><ele>250.56</ele><time>2014-03-19T10:45:51Z</time></trkpt><trkpt lat="51.8122683372" lon="-2.0451169834"><ele>252.00</ele><time>2014-03-19T10:46:09Z</time></trkpt><trkpt lat="51.8122849334" lon="-2.0448560547"><ele>252.00</ele><time>2014-03-19T10:46:25Z</time></trkpt><trkpt lat="51.8123067264" lon="-2.0445987303"><ele>252.96</ele><time>2014-03-19T10:46:44Z</time></trkpt><trkpt lat="51.8123544194" lon="-2.0443409868"><ele>254.41</ele><time>2014-03-19T10:47:04Z</time></trkpt><trkpt lat="51.8123923056" lon="-2.0440429263"><ele>256.81</ele><time>2014-03-19T10:47:25Z</time></trkpt><trkpt lat="51.8123966642" lon="-2.0439815708"><ele>256.81</ele><time>2014-03-19T10:47:29Z</time></trkpt><trkpt lat="51.8123796489" lon="-2.0439434331"><ele>256.81</ele><time>2014-03-19T10:47:37Z</time></trkpt><trkpt lat="51.8123252504" lon="-2.0439231489"><ele>257.29</ele><time>2014-03-19T10:47:48Z</time></trkpt><trkpt lat="51.8123122584" lon="-2.0439937245"><ele>258.25</ele><time>2014-03-19T10:48:04Z</time></trkpt><trkpt lat="51.8122950755" lon="-2.0439174492"><ele>257.77</ele><time>2014-03-19T10:48:09Z</time></trkpt><trkpt lat="51.8121863622" lon="-2.0438277628"><ele>258.25</ele><time>2014-03-19T10:48:19Z</time></trkpt><trkpt lat="51.8120251782" lon="-2.0437119249"><ele>258.25</ele><time>2014-03-19T10:48:37Z</time></trkpt><trkpt lat="51.8118480686" lon="-2.0436043013"><ele>258.73</ele><time>2014-03-19T10:48:53Z</time></trkpt><trkpt lat="51.8116650078" lon="-2.0434887148"><ele>259.21</ele><time>2014-03-19T10:49:09Z</time></trkpt><trkpt lat="51.8114512693" lon="-2.0433551911"><ele>258.73</ele><time>2014-03-19T10:49:27Z</time></trkpt><trkpt lat="51.8112515286" lon="-2.0432340726"><ele>257.29</ele><time>2014-03-19T10:49:45Z</time></trkpt><trkpt lat="51.8110446632" lon="-2.0430797618"><ele>256.81</ele><time>2014-03-19T10:50:05Z</time></trkpt><trkpt lat="51.8109024223" lon="-2.0429915842"><ele>256.33</ele><time>2014-03-19T10:50:22Z</time></trkpt><trkpt lat="51.8107160088" lon="-2.0428681187"><ele>254.89</ele><time>2014-03-19T10:50:41Z</time></trkpt><trkpt lat="51.8105344567" lon="-2.0427532867"><ele>252.96</ele><time>2014-03-19T10:51:04Z</time></trkpt><trkpt lat="51.8104118295" lon="-2.0426010713"><ele>251.52</ele><time>2014-03-19T10:51:25Z</time></trkpt><trkpt lat="51.8103477079" lon="-2.0424786955"><ele>250.08</ele><time>2014-03-19T10:51:40Z</time></trkpt><trkpt lat="51.8103557546" lon="-2.0424651168"><ele>249.12</ele><time>2014-03-19T10:51:56Z</time></trkpt><trkpt lat="51.8103491329" lon="-2.0424656197"><ele>250.08</ele><time>2014-03-19T10:52:20Z</time></trkpt><trkpt lat="51.8103473727" lon="-2.0424553938"><ele>250.08</ele><time>2014-03-19T10:52:54Z</time></trkpt><trkpt lat="51.8103495520" lon="-2.0424640272"><ele>250.08</ele><time>2014-03-19T10:53:14Z</time></trkpt><trkpt lat="51.8103062175" lon="-2.0424320083"><ele>248.64</ele><time>2014-03-19T10:53:20Z</time></trkpt><trkpt lat="51.8102451134" lon="-2.0423609298"><ele>247.68</ele><time>2014-03-19T10:53:27Z</time></trkpt><trkpt lat="51.8101156130" lon="-2.0422315970"><ele>244.79</ele><time>2014-03-19T10:53:40Z</time></trkpt><trkpt lat="51.8099384196" lon="-2.0420246478"><ele>241.91</ele><time>2014-03-19T10:53:55Z</time></trkpt><trkpt lat="51.8098856136" lon="-2.0419693273"><ele>239.99</ele><time>2014-03-19T10:53:58Z</time></trkpt><trkpt lat="51.8097583763" lon="-2.0418111607"><ele>237.10</ele><time>2014-03-19T10:54:05Z</time></trkpt><trkpt lat="51.8096977752" lon="-2.0417487156"><ele>235.66</ele><time>2014-03-19T10:54:08Z</time></trkpt><trkpt lat="51.8094825279" lon="-2.0415229909"><ele>233.26</ele><time>2014-03-19T10:54:20Z</time></trkpt><trkpt lat="51.8092801888" lon="-2.0412872918"><ele>230.85</ele><time>2014-03-19T10:54:37Z</time></trkpt><trkpt lat="51.8092304841" lon="-2.0412315521"><ele>231.33</ele><time>2014-03-19T10:54:42Z</time></trkpt><trkpt lat="51.8091179989" lon="-2.0410748105"><ele>228.93</ele><time>2014-03-19T10:54:54Z</time></trkpt><trkpt lat="51.8089704774" lon="-2.0408555400"><ele>227.49</ele><time>2014-03-19T10:55:13Z</time></trkpt><trkpt lat="51.8089203537" lon="-2.0407868084"><ele>227.49</ele><time>2014-03-19T10:55:29Z</time></trkpt><trkpt lat="51.8089487683" lon="-2.0407982077"><ele>227.49</ele><time>2014-03-19T10:55:45Z</time></trkpt><trkpt lat="51.8089435715" lon="-2.0408177376"><ele>227.97</ele><time>2014-03-19T10:56:09Z</time></trkpt><trkpt lat="51.8089441583" lon="-2.0408279635"><ele>227.49</ele><time>2014-03-19T10:56:33Z</time></trkpt><trkpt lat="51.8089394644" lon="-2.0408493374"><ele>227.49</ele><time>2014-03-19T10:57:02Z</time></trkpt><trkpt lat="51.8089369498" lon="-2.0408590604"><ele>227.97</ele><time>2014-03-19T10:57:26Z</time></trkpt><trkpt lat="51.8089370336" lon="-2.0408520196"><ele>227.97</ele><time>2014-03-19T10:57:50Z</time></trkpt><trkpt lat="51.8089278135" lon="-2.0408856310"><ele>227.49</ele><time>2014-03-19T10:58:16Z</time></trkpt><trkpt lat="51.8089278135" lon="-2.0408920851"><ele>227.01</ele><time>2014-03-19T10:58:37Z</time></trkpt><trkpt lat="51.8089248799" lon="-2.0409304742"><ele>227.49</ele><time>2014-03-19T10:59:01Z</time></trkpt><trkpt lat="51.8089341838" lon="-2.0409107767"><ele>227.01</ele><time>2014-03-19T10:59:26Z</time></trkpt><trkpt lat="51.8089243770" lon="-2.0409098547"><ele>227.49</ele><time>2014-03-19T10:59:49Z</time></trkpt><trkpt lat="51.8089284003" lon="-2.0408863854"><ele>227.01</ele><time>2014-03-19T11:00:12Z</time></trkpt><trkpt lat="51.8089195993" lon="-2.0408542827"><ele>227.01</ele><time>2014-03-19T11:00:34Z</time></trkpt><trkpt lat="51.8089371175" lon="-2.0408557076"><ele>227.49</ele><time>2014-03-19T11:00:59Z</time></trkpt><trkpt lat="51.8089494389" lon="-2.0408526063"><ele>227.97</ele><time>2014-03-19T11:01:25Z</time></trkpt><trkpt lat="51.8089551385" lon="-2.0408606529"><ele>227.97</ele><time>2014-03-19T11:01:50Z</time></trkpt><trkpt lat="51.8089463376" lon="-2.0408341661"><ele>227.97</ele><time>2014-03-19T11:02:11Z</time></trkpt><trkpt lat="51.8089366984" lon="-2.0408723038"><ele>228.45</ele><time>2014-03-19T11:02:31Z</time></trkpt><trkpt lat="51.8089276459" lon="-2.0408911631"><ele>227.97</ele><time>2014-03-19T11:03:03Z</time></trkpt><trkpt lat="51.8089265563" lon="-2.0409013890"><ele>228.45</ele><time>2014-03-19T11:03:32Z</time></trkpt><trkpt lat="51.8089262210" lon="-2.0408894867"><ele>229.41</ele><time>2014-03-19T11:04:04Z</time></trkpt><trkpt lat="51.8089282326" lon="-2.0408826973"><ele>228.93</ele><time>2014-03-19T11:04:31Z</time></trkpt><trkpt lat="51.8089334294" lon="-2.0408508461"><ele>228.45</ele><time>2014-03-19T11:04:51Z</time></trkpt><trkpt lat="51.8089302443" lon="-2.0408492535"><ele>228.93</ele><time>2014-03-19T11:05:18Z</time></trkpt><trkpt lat="51.8089366145" lon="-2.0408611558"><ele>228.93</ele><time>2014-03-19T11:05:41Z</time></trkpt><trkpt lat="51.8089280650" lon="-2.0408610720"><ele>228.93</ele><time>2014-03-19T11:06:03Z</time></trkpt><trkpt lat="51.8089193478" lon="-2.0408685319"><ele>228.93</ele><time>2014-03-19T11:06:28Z</time></trkpt><trkpt lat="51.8089164142" lon="-2.0408641733"><ele>228.93</ele><time>2014-03-19T11:07:00Z</time></trkpt><trkpt lat="51.8089175038" lon="-2.0408493374"><ele>229.89</ele><time>2014-03-19T11:07:33Z</time></trkpt><trkpt lat="51.8089203537" lon="-2.0408334117"><ele>229.41</ele><time>2014-03-19T11:08:01Z</time></trkpt><trkpt lat="51.8089183420" lon="-2.0408394467"><ele>229.41</ele><time>2014-03-19T11:08:22Z</time></trkpt><trkpt lat="51.8088502809" lon="-2.0407990459"><ele>228.45</ele><time>2014-03-19T11:08:49Z</time></trkpt><trkpt lat="51.8087656237" lon="-2.0406355988"><ele>228.45</ele><time>2014-03-19T11:09:02Z</time></trkpt><trkpt lat="51.8086304236" lon="-2.0405143965"><ele>228.45</ele><time>2014-03-19T11:09:15Z</time></trkpt><trkpt lat="51.8085757736" lon="-2.0404924359"><ele>227.97</ele><time>2014-03-19T11:09:27Z</time></trkpt><trkpt lat="51.8085771985" lon="-2.0405122172"><ele>228.45</ele><time>2014-03-19T11:09:58Z</time></trkpt><trkpt lat="51.8085789587" lon="-2.0405225269"><ele>228.45</ele><time>2014-03-19T11:10:18Z</time></trkpt><trkpt lat="51.8085758574" lon="-2.0405262150"><ele>228.93</ele><time>2014-03-19T11:10:43Z</time></trkpt><trkpt lat="51.8085763603" lon="-2.0405370276"><ele>229.41</ele><time>2014-03-19T11:11:08Z</time></trkpt><trkpt lat="51.8085747678" lon="-2.0405532885"><ele>229.41</ele><time>2014-03-19T11:11:33Z</time></trkpt><trkpt lat="51.8085654639" lon="-2.0405130554"><ele>229.41</ele><time>2014-03-19T11:11:43Z</time></trkpt><trkpt lat="51.8085003365" lon="-2.0404257998"><ele>228.45</ele><time>2014-03-19T11:11:53Z</time></trkpt><trkpt lat="51.8084686529" lon="-2.0403829683"><ele>228.45</ele><time>2014-03-19T11:11:57Z</time></trkpt><trkpt lat="51.8082837481" lon="-2.0401567407"><ele>227.01</ele><time>2014-03-19T11:12:14Z</time></trkpt><trkpt lat="51.8081396632" lon="-2.0399784576"><ele>225.09</ele><time>2014-03-19T11:12:30Z</time></trkpt><trkpt lat="51.8080587778" lon="-2.0396412537"><ele>222.68</ele><time>2014-03-19T11:12:46Z</time></trkpt><trkpt lat="51.8080099951" lon="-2.0393082406"><ele>220.76</ele><time>2014-03-19T11:13:03Z</time></trkpt><trkpt lat="51.8080058880" lon="-2.0391675085"><ele>219.80</ele><time>2014-03-19T11:13:23Z</time></trkpt><trkpt lat="51.8079859391" lon="-2.0389079209"><ele>217.88</ele><time>2014-03-19T11:13:41Z</time></trkpt><trkpt lat="51.8078719452" lon="-2.0385362674"><ele>216.43</ele><time>2014-03-19T11:13:57Z</time></trkpt><trkpt lat="51.8078990187" lon="-2.0382537972"><ele>213.55</ele><time>2014-03-19T11:14:12Z</time></trkpt><trkpt lat="51.8079742882" lon="-2.0378414076"><ele>212.11</ele><time>2014-03-19T11:14:30Z</time></trkpt><trkpt lat="51.8080047145" lon="-2.0375400782"><ele>209.70</ele><time>2014-03-19T11:14:44Z</time></trkpt><trkpt lat="51.8080520723" lon="-2.0371562708"><ele>207.78</ele><time>2014-03-19T11:15:03Z</time></trkpt><trkpt lat="51.8080633041" lon="-2.0369824301"><ele>206.82</ele><time>2014-03-19T11:15:14Z</time></trkpt><trkpt lat="51.8080541678" lon="-2.0365106966"><ele>206.34</ele><time>2014-03-19T11:15:34Z</time></trkpt><trkpt lat="51.8080704287" lon="-2.0360178407"><ele>205.38</ele><time>2014-03-19T11:15:54Z</time></trkpt><trkpt lat="51.8080124259" lon="-2.0358190220"><ele>204.90</ele><time>2014-03-19T11:16:09Z</time></trkpt><trkpt lat="51.8080120906" lon="-2.0357871708"><ele>204.90</ele><time>2014-03-19T11:16:12Z</time></trkpt><trkpt lat="51.8080163654" lon="-2.0354659762"><ele>203.94</ele><time>2014-03-19T11:16:33Z</time></trkpt><trkpt lat="51.8079118431" lon="-2.0349690132"><ele>203.46</ele><time>2014-03-19T11:16:52Z</time></trkpt><trkpt lat="51.8078484759" lon="-2.0346142072"><ele>202.01</ele><time>2014-03-19T11:17:07Z</time></trkpt><trkpt lat="51.8078141101" lon="-2.0343039092"><ele>202.49</ele><time>2014-03-19T11:17:23Z</time></trkpt><trkpt lat="51.8077284470" lon="-2.0344086830"><ele>198.17</ele><time>2014-03-19T11:17:36Z</time></trkpt><trkpt lat="51.8077283632" lon="-2.0344089344"><ele>200.09</ele><time>2014-03-19T11:17:42Z</time></trkpt><trkpt lat="51.8077582866" lon="-2.0344338287"><ele>200.09</ele><time>2014-03-19T11:18:02Z</time></trkpt><trkpt lat="51.8077356555" lon="-2.0341742411"><ele>201.05</ele><time>2014-03-19T11:18:17Z</time></trkpt><trkpt lat="51.8078030460" lon="-2.0337758493"><ele>200.57</ele><time>2014-03-19T11:18:38Z</time></trkpt><trkpt lat="51.8077970948" lon="-2.0333275013"><ele>200.09</ele><time>2014-03-19T11:18:59Z</time></trkpt><trkpt lat="51.8078368250" lon="-2.0331081469"><ele>200.57</ele><time>2014-03-19T11:19:18Z</time></trkpt><trkpt lat="51.8078281078" lon="-2.0328897145"><ele>199.13</ele><time>2014-03-19T11:19:34Z</time></trkpt><trkpt lat="51.8078949116" lon="-2.0324841980"><ele>199.13</ele><time>2014-03-19T11:19:54Z</time></trkpt><trkpt lat="51.8080071453" lon="-2.0320806094"><ele>198.17</ele><time>2014-03-19T11:20:15Z</time></trkpt><trkpt lat="51.8080749549" lon="-2.0316981431"><ele>197.21</ele><time>2014-03-19T11:20:37Z</time></trkpt><trkpt lat="51.8081381544" lon="-2.0312824845"><ele>197.21</ele><time>2014-03-19T11:20:58Z</time></trkpt><trkpt lat="51.8081572652" lon="-2.0309405867"><ele>196.73</ele><time>2014-03-19T11:21:18Z</time></trkpt><trkpt lat="51.8082066346" lon="-2.0306219067"><ele>196.25</ele><time>2014-03-19T11:21:37Z</time></trkpt><trkpt lat="51.8082243204" lon="-2.0302478224"><ele>197.69</ele><time>2014-03-19T11:21:58Z</time></trkpt><trkpt lat="51.8081983365" lon="-2.0299423859"><ele>197.21</ele><time>2014-03-19T11:22:17Z</time></trkpt><trkpt lat="51.8080690876" lon="-2.0295256376"><ele>196.73</ele><time>2014-03-19T11:22:36Z</time></trkpt><trkpt lat="51.8079362344" lon="-2.0292085502"><ele>195.28</ele><time>2014-03-19T11:22:55Z</time></trkpt><trkpt lat="51.8077051453" lon="-2.0288467873"><ele>195.28</ele><time>2014-03-19T11:23:15Z</time></trkpt><trkpt lat="51.8076896388" lon="-2.0288852602"><ele>195.77</ele><time>2014-03-19T11:23:26Z</time></trkpt><trkpt lat="51.8076537643" lon="-2.0288359746"><ele>194.80</ele><time>2014-03-19T11:23:30Z</time></trkpt><trkpt lat="51.8075200729" lon="-2.0286597870"><ele>194.80</ele><time>2014-03-19T11:23:48Z</time></trkpt><trkpt lat="51.8073484953" lon="-2.0284273569"><ele>194.80</ele><time>2014-03-19T11:24:05Z</time></trkpt><trkpt lat="51.8071729783" lon="-2.0281541906"><ele>195.28</ele><time>2014-03-19T11:24:23Z</time></trkpt><trkpt lat="51.8070784304" lon="-2.0280402806"><ele>194.80</ele><time>2014-03-19T11:24:38Z</time></trkpt><trkpt lat="51.8069583178" lon="-2.0278712176"><ele>193.84</ele><time>2014-03-19T11:25:00Z</time></trkpt><trkpt lat="51.8068170827" lon="-2.0277046692"><ele>192.88</ele><time>2014-03-19T11:25:16Z</time></trkpt><trkpt lat="51.8066888396" lon="-2.0274909306"><ele>191.92</ele><time>2014-03-19T11:25:34Z</time></trkpt><trkpt lat="51.8065753486" lon="-2.0272581652"><ele>190.96</ele><time>2014-03-19T11:25:52Z</time></trkpt><trkpt lat="51.8065054435" lon="-2.0273260586"><ele>190.96</ele><time>2014-03-19T11:26:00Z</time></trkpt><trkpt lat="51.8064706586" lon="-2.0273755118"><ele>190.96</ele><time>2014-03-19T11:26:03Z</time></trkpt><trkpt lat="51.8063475285" lon="-2.0276365243"><ele>191.44</ele><time>2014-03-19T11:26:23Z</time></trkpt><trkpt lat="51.8062601052" lon="-2.0277084410"><ele>192.40</ele><time>2014-03-19T11:26:40Z</time></trkpt><trkpt lat="51.8062425870" lon="-2.0278389473"><ele>191.92</ele><time>2014-03-19T11:26:58Z</time></trkpt><trkpt lat="51.8061320297" lon="-2.0279740635"><ele>193.84</ele><time>2014-03-19T11:27:16Z</time></trkpt><trkpt lat="51.8060220592" lon="-2.0281173103"><ele>196.25</ele><time>2014-03-19T11:27:32Z</time></trkpt><trkpt lat="51.8058389146" lon="-2.0282607246"><ele>198.65</ele><time>2014-03-19T11:27:53Z</time></trkpt><trkpt lat="51.8056732044" lon="-2.0284027141"><ele>200.57</ele><time>2014-03-19T11:28:15Z</time></trkpt><trkpt lat="51.8055736274" lon="-2.0285453741"><ele>203.46</ele><time>2014-03-19T11:28:34Z</time></trkpt><trkpt lat="51.8054577895" lon="-2.0286576077"><ele>204.90</ele><time>2014-03-19T11:28:53Z</time></trkpt><trkpt lat="51.8054042291" lon="-2.0287626330"><ele>207.78</ele><time>2014-03-19T11:29:11Z</time></trkpt><trkpt lat="51.8052965216" lon="-2.0289198775"><ele>210.19</ele><time>2014-03-19T11:29:32Z</time></trkpt><trkpt lat="51.8051477429" lon="-2.0291091409"><ele>213.55</ele><time>2014-03-19T11:29:52Z</time></trkpt><trkpt lat="51.8050715514" lon="-2.0292106457"><ele>214.99</ele><time>2014-03-19T11:30:10Z</time></trkpt><trkpt lat="51.8050185777" lon="-2.0293569937"><ele>217.40</ele><time>2014-03-19T11:30:29Z</time></trkpt><trkpt lat="51.8050137162" lon="-2.0293769427"><ele>216.91</ele><time>2014-03-19T11:30:42Z</time></trkpt><trkpt lat="51.8050091062" lon="-2.0293854084"><ele>207.30</ele><time>2014-03-19T11:31:02Z</time></trkpt><trkpt lat="51.8050091900" lon="-2.0293848217"><ele>217.88</ele><time>2014-03-19T11:31:03Z</time></trkpt><trkpt lat="51.8050118722" lon="-2.0293739252"><ele>216.43</ele><time>2014-03-19T11:31:28Z</time></trkpt><trkpt lat="51.8050107826" lon="-2.0293709077"><ele>216.43</ele><time>2014-03-19T11:31:59Z</time></trkpt><trkpt lat="51.8050179910" lon="-2.0293596759"><ele>216.91</ele><time>2014-03-19T11:32:26Z</time></trkpt><trkpt lat="51.8050167337" lon="-2.0293603465"><ele>216.91</ele><time>2014-03-19T11:32:45Z</time></trkpt><trkpt lat="51.8050198350" lon="-2.0294291619"><ele>216.91</ele><time>2014-03-19T11:33:02Z</time></trkpt><trkpt lat="51.8050127104" lon="-2.0296664536"><ele>218.84</ele><time>2014-03-19T11:33:16Z</time></trkpt><trkpt lat="51.8050080165" lon="-2.0299055055"><ele>219.32</ele><time>2014-03-19T11:33:30Z</time></trkpt><trkpt lat="51.8049749918" lon="-2.0301230159"><ele>220.28</ele><time>2014-03-19T11:33:42Z</time></trkpt><trkpt lat="51.8049524445" lon="-2.0303730480"><ele>221.24</ele><time>2014-03-19T11:33:55Z</time></trkpt><trkpt lat="51.8050140515" lon="-2.0305965934"><ele>222.68</ele><time>2014-03-19T11:34:10Z</time></trkpt><trkpt lat="51.8050131295" lon="-2.0306959189"><ele>222.68</ele><time>2014-03-19T11:34:16Z</time></trkpt><trkpt lat="51.8049010634" lon="-2.0309071429"><ele>224.61</ele><time>2014-03-19T11:34:30Z</time></trkpt><trkpt lat="51.8048390374" lon="-2.0309745334"><ele>224.61</ele><time>2014-03-19T11:34:38Z</time></trkpt><trkpt lat="51.8047812022" lon="-2.0310451090"><ele>227.01</ele><time>2014-03-19T11:34:45Z</time></trkpt><trkpt lat="51.8046703096" lon="-2.0311523136"><ele>227.49</ele><time>2014-03-19T11:34:59Z</time></trkpt><trkpt lat="51.8045488559" lon="-2.0312881004"><ele>229.41</ele><time>2014-03-19T11:35:13Z</time></trkpt><trkpt lat="51.8044390529" lon="-2.0314648747"><ele>229.41</ele><time>2014-03-19T11:35:28Z</time></trkpt><trkpt lat="51.8044054415" lon="-2.0315224584"><ele>231.33</ele><time>2014-03-19T11:35:33Z</time></trkpt><trkpt lat="51.8043658789" lon="-2.0315908547"><ele>231.33</ele><time>2014-03-19T11:35:40Z</time></trkpt><trkpt lat="51.8043460976" lon="-2.0316281542"><ele>231.33</ele><time>2014-03-19T11:35:43Z</time></trkpt><trkpt lat="51.8042615242" lon="-2.0318429824"><ele>233.26</ele><time>2014-03-19T11:35:59Z</time></trkpt><trkpt lat="51.8041870091" lon="-2.0320253726"><ele>233.26</ele><time>2014-03-19T11:36:14Z</time></trkpt><trkpt lat="51.8041103147" lon="-2.0322330762"><ele>234.22</ele><time>2014-03-19T11:36:29Z</time></trkpt><trkpt lat="51.8040498812" lon="-2.0324267820"><ele>235.66</ele><time>2014-03-19T11:36:43Z</time></trkpt><trkpt lat="51.8040138390" lon="-2.0325711183"><ele>237.10</ele><time>2014-03-19T11:36:53Z</time></trkpt><trkpt lat="51.8039837480" lon="-2.0326545183"><ele>236.62</ele><time>2014-03-19T11:37:00Z</time></trkpt><trkpt lat="51.8039738573" lon="-2.0326836873"><ele>237.58</ele><time>2014-03-19T11:37:02Z</time></trkpt><trkpt lat="51.8039625417" lon="-2.0327285305"><ele>236.14</ele><time>2014-03-19T11:37:05Z</time></trkpt><trkpt lat="51.8039467838" lon="-2.0327646565"><ele>238.06</ele><time>2014-03-19T11:37:09Z</time></trkpt><trkpt lat="51.8039463647" lon="-2.0327818394"><ele>236.62</ele><time>2014-03-19T11:37:14Z</time></trkpt><trkpt lat="51.8039288465" lon="-2.0328278560"><ele>237.58</ele><time>2014-03-19T11:37:17Z</time></trkpt><trkpt lat="51.8038892001" lon="-2.0329278521"><ele>238.06</ele><time>2014-03-19T11:37:25Z</time></trkpt><trkpt lat="51.8038297724" lon="-2.0331011061"><ele>239.02</ele><time>2014-03-19T11:37:39Z</time></trkpt><trkpt lat="51.8038238212" lon="-2.0331258327"><ele>239.02</ele><time>2014-03-19T11:37:41Z</time></trkpt><trkpt lat="51.8037752062" lon="-2.0333752781"><ele>239.02</ele><time>2014-03-19T11:37:57Z</time></trkpt><trkpt lat="51.8037030380" lon="-2.0336211193"><ele>239.51</ele><time>2014-03-19T11:38:12Z</time></trkpt><trkpt lat="51.8036633078" lon="-2.0338247996"><ele>240.95</ele><time>2014-03-19T11:38:25Z</time></trkpt><trkpt lat="51.8036195543" lon="-2.0340701379"><ele>241.43</ele><time>2014-03-19T11:38:41Z</time></trkpt><trkpt lat="51.8035684247" lon="-2.0343003049"><ele>241.91</ele><time>2014-03-19T11:38:57Z</time></trkpt><trkpt lat="51.8035411835" lon="-2.0345537737"><ele>242.39</ele><time>2014-03-19T11:39:13Z</time></trkpt><trkpt lat="51.8034963403" lon="-2.0348069910"><ele>242.87</ele><time>2014-03-19T11:39:29Z</time></trkpt><trkpt lat="51.8034807499" lon="-2.0348537620"><ele>243.35</ele><time>2014-03-19T11:39:32Z</time></trkpt><trkpt lat="51.8034616392" lon="-2.0350082405"><ele>243.35</ele><time>2014-03-19T11:39:41Z</time></trkpt><trkpt lat="51.8034574483" lon="-2.0350809116"><ele>243.83</ele><time>2014-03-19T11:39:46Z</time></trkpt><trkpt lat="51.8034001160" lon="-2.0353741106"><ele>243.83</ele><time>2014-03-19T11:40:02Z</time></trkpt><trkpt lat="51.8033893872" lon="-2.0354357176"><ele>243.83</ele><time>2014-03-19T11:40:06Z</time></trkpt><trkpt lat="51.8033164646" lon="-2.0357038546"><ele>244.31</ele><time>2014-03-19T11:40:21Z</time></trkpt><trkpt lat="51.8033123575" lon="-2.0359660406"><ele>244.31</ele><time>2014-03-19T11:40:38Z</time></trkpt><trkpt lat="51.8033148721" lon="-2.0361636020"><ele>244.79</ele><time>2014-03-19T11:40:53Z</time></trkpt><trkpt lat="51.8033142854" lon="-2.0361952018"><ele>245.27</ele><time>2014-03-19T11:40:55Z</time></trkpt><trkpt lat="51.8033062387" lon="-2.0364810247"><ele>245.75</ele><time>2014-03-19T11:41:12Z</time></trkpt><trkpt lat="51.8032746390" lon="-2.0367246866"><ele>246.23</ele><time>2014-03-19T11:41:27Z</time></trkpt><trkpt lat="51.8032147083" lon="-2.0370160416"><ele>246.72</ele><time>2014-03-19T11:41:44Z</time></trkpt><trkpt lat="51.8031786662" lon="-2.0371938217"><ele>246.72</ele><time>2014-03-19T11:41:55Z</time></trkpt><trkpt lat="51.8031182326" lon="-2.0374160260"><ele>246.72</ele><time>2014-03-19T11:42:09Z</time></trkpt><trkpt lat="51.8030997086" lon="-2.0375030302"><ele>246.72</ele><time>2014-03-19T11:42:14Z</time></trkpt><trkpt lat="51.8029997125" lon="-2.0378289185"><ele>246.72</ele><time>2014-03-19T11:42:33Z</time></trkpt><trkpt lat="51.8029253650" lon="-2.0380705688"><ele>246.72</ele><time>2014-03-19T11:42:49Z</time></trkpt><trkpt lat="51.8028766662" lon="-2.0382589102"><ele>245.27</ele><time>2014-03-19T11:43:01Z</time></trkpt><trkpt lat="51.8028083537" lon="-2.0385225210"><ele>244.79</ele><time>2014-03-19T11:43:18Z</time></trkpt><trkpt lat="51.8027753290" lon="-2.0386262052"><ele>245.27</ele><time>2014-03-19T11:43:25Z</time></trkpt><trkpt lat="51.8026864808" lon="-2.0388983656"><ele>244.31</ele><time>2014-03-19T11:43:41Z</time></trkpt><trkpt lat="51.8026252929" lon="-2.0390625671"><ele>243.83</ele><time>2014-03-19T11:43:50Z</time></trkpt><trkpt lat="51.8025145680" lon="-2.0393342245"><ele>242.87</ele><time>2014-03-19T11:44:06Z</time></trkpt><trkpt lat="51.8024181761" lon="-2.0395821612"><ele>243.35</ele><time>2014-03-19T11:44:20Z</time></trkpt><trkpt lat="51.8023741711" lon="-2.0396538265"><ele>243.35</ele><time>2014-03-19T11:44:26Z</time></trkpt><trkpt lat="51.8022458442" lon="-2.0398229733"><ele>243.83</ele><time>2014-03-19T11:44:39Z</time></trkpt><trkpt lat="51.8020750210" lon="-2.0400160924"><ele>243.35</ele><time>2014-03-19T11:44:56Z</time></trkpt><trkpt lat="51.8019378092" lon="-2.0401928667"><ele>244.31</ele><time>2014-03-19T11:45:12Z</time></trkpt><trkpt lat="51.8019244820" lon="-2.0401812997"><ele>244.31</ele><time>2014-03-19T11:45:26Z</time></trkpt><trkpt lat="51.8018195406" lon="-2.0403143205"><ele>243.83</ele><time>2014-03-19T11:45:39Z</time></trkpt><trkpt lat="51.8016922195" lon="-2.0404864848"><ele>246.23</ele><time>2014-03-19T11:45:54Z</time></trkpt><trkpt lat="51.8015308678" lon="-2.0406589005"><ele>246.72</ele><time>2014-03-19T11:46:10Z</time></trkpt><trkpt lat="51.8014020380" lon="-2.0407943521"><ele>247.68</ele><time>2014-03-19T11:46:24Z</time></trkpt><trkpt lat="51.8012242578" lon="-2.0409698691"><ele>247.68</ele><time>2014-03-19T11:46:43Z</time></trkpt><trkpt lat="51.8010883871" lon="-2.0411032252"><ele>248.64</ele><time>2014-03-19T11:46:59Z</time></trkpt><trkpt lat="51.8010808434" lon="-2.0411100145"><ele>248.16</ele><time>2014-03-19T11:47:00Z</time></trkpt><trkpt lat="51.8009308074" lon="-2.0412595477"><ele>249.60</ele><time>2014-03-19T11:47:16Z</time></trkpt><trkpt lat="51.8009115290" lon="-2.0412661694"><ele>248.64</ele><time>2014-03-19T11:47:18Z</time></trkpt><trkpt lat="51.8007339165" lon="-2.0414151158"><ele>249.12</ele><time>2014-03-19T11:47:37Z</time></trkpt><trkpt lat="51.8005627580" lon="-2.0415379107"><ele>250.08</ele><time>2014-03-19T11:47:54Z</time></trkpt><trkpt lat="51.8004976306" lon="-2.0415855199"><ele>250.08</ele><time>2014-03-19T11:48:00Z</time></trkpt><trkpt lat="51.8003601674" lon="-2.0416800678"><ele>250.56</ele><time>2014-03-19T11:48:18Z</time></trkpt><trkpt lat="51.8002418987" lon="-2.0417724364"><ele>251.04</ele><time>2014-03-19T11:48:32Z</time></trkpt><trkpt lat="51.8001080398" lon="-2.0418754499"><ele>251.04</ele><time>2014-03-19T11:48:45Z</time></trkpt><trkpt lat="51.7999559082" lon="-2.0420109015"><ele>252.00</ele><time>2014-03-19T11:49:01Z</time></trkpt><trkpt lat="51.7998001724" lon="-2.0421654638"><ele>252.96</ele><time>2014-03-19T11:49:16Z</time></trkpt><trkpt lat="51.7996714264" lon="-2.0422998257"><ele>253.44</ele><time>2014-03-19T11:49:30Z</time></trkpt><trkpt lat="51.7995510623" lon="-2.0424277335"><ele>254.41</ele><time>2014-03-19T11:49:42Z</time></trkpt><trkpt lat="51.7994069774" lon="-2.0426200144"><ele>254.89</ele><time>2014-03-19T11:49:59Z</time></trkpt><trkpt lat="51.7992766388" lon="-2.0428446494"><ele>256.33</ele><time>2014-03-19T11:50:16Z</time></trkpt><trkpt lat="51.7992038839" lon="-2.0430094376"><ele>256.33</ele><time>2014-03-19T11:50:27Z</time></trkpt><trkpt lat="51.7991643213" lon="-2.0431005489"><ele>255.85</ele><time>2014-03-19T11:50:34Z</time></trkpt><trkpt lat="51.7990711145" lon="-2.0433247648"><ele>256.33</ele><time>2014-03-19T11:50:51Z</time></trkpt><trkpt lat="51.7989866249" lon="-2.0435461309"><ele>257.29</ele><time>2014-03-19T11:51:04Z</time></trkpt><trkpt lat="51.7989734653" lon="-2.0435668342"><ele>256.81</ele><time>2014-03-19T11:51:06Z</time></trkpt><trkpt lat="51.7989520915" lon="-2.0436134376"><ele>256.81</ele><time>2014-03-19T11:51:09Z</time></trkpt><trkpt lat="51.7988906521" lon="-2.0438058861"><ele>257.29</ele><time>2014-03-19T11:51:23Z</time></trkpt><trkpt lat="51.7988306377" lon="-2.0440688264"><ele>257.77</ele><time>2014-03-19T11:51:37Z</time></trkpt><trkpt lat="51.7987624090" lon="-2.0443274081"><ele>257.77</ele><time>2014-03-19T11:51:52Z</time></trkpt><trkpt lat="51.7986999638" lon="-2.0445465110"><ele>257.77</ele><time>2014-03-19T11:52:05Z</time></trkpt><trkpt lat="51.7986452300" lon="-2.0447276440"><ele>257.77</ele><time>2014-03-19T11:52:19Z</time></trkpt><trkpt lat="51.7986233532" lon="-2.0449153986"><ele>259.69</ele><time>2014-03-19T11:52:31Z</time></trkpt><trkpt lat="51.7986113671" lon="-2.0450629201"><ele>258.73</ele><time>2014-03-19T11:52:41Z</time></trkpt><trkpt lat="51.7985842936" lon="-2.0451357588"><ele>258.73</ele><time>2014-03-19T11:52:45Z</time></trkpt><trkpt lat="51.7985760793" lon="-2.0452598110"><ele>258.73</ele><time>2014-03-19T11:52:53Z</time></trkpt><trkpt lat="51.7985326611" lon="-2.0454844460"><ele>258.25</ele><time>2014-03-19T11:53:06Z</time></trkpt><trkpt lat="51.7985151429" lon="-2.0455529261"><ele>258.73</ele><time>2014-03-19T11:53:09Z</time></trkpt><trkpt lat="51.7984736525" lon="-2.0457162894"><ele>258.25</ele><time>2014-03-19T11:53:18Z</time></trkpt><trkpt lat="51.7984505184" lon="-2.0457937382"><ele>257.77</ele><time>2014-03-19T11:53:22Z</time></trkpt><trkpt lat="51.7984019872" lon="-2.0459006075"><ele>257.77</ele><time>2014-03-19T11:53:27Z</time></trkpt><trkpt lat="51.7983387038" lon="-2.0461591054"><ele>257.29</ele><time>2014-03-19T11:53:42Z</time></trkpt><trkpt lat="51.7982817907" lon="-2.0463668928"><ele>256.81</ele><time>2014-03-19T11:53:56Z</time></trkpt><trkpt lat="51.7981596664" lon="-2.0467330143"><ele>255.85</ele><time>2014-03-19T11:54:15Z</time></trkpt><trkpt lat="51.7981284019" lon="-2.0468034223"><ele>255.37</ele><time>2014-03-19T11:54:35Z</time></trkpt><trkpt lat="51.7980986461" lon="-2.0468719862"><ele>255.85</ele><time>2014-03-19T11:54:49Z</time></trkpt><trkpt lat="51.7980477680" lon="-2.0471112058"><ele>255.37</ele><time>2014-03-19T11:55:03Z</time></trkpt><trkpt lat="51.7980295792" lon="-2.0471702982"><ele>254.41</ele><time>2014-03-19T11:55:20Z</time></trkpt><trkpt lat="51.7980144918" lon="-2.0471910853"><ele>255.37</ele><time>2014-03-19T11:55:36Z</time></trkpt><trkpt lat="51.7980020866" lon="-2.0472191647"><ele>255.37</ele><time>2014-03-19T11:55:57Z</time></trkpt><trkpt lat="51.7979974765" lon="-2.0472378563"><ele>254.89</ele><time>2014-03-19T11:55:58Z</time></trkpt><trkpt lat="51.7979446705" lon="-2.0474126190"><ele>255.85</ele><time>2014-03-19T11:56:08Z</time></trkpt><trkpt lat="51.7979322653" lon="-2.0474472363"><ele>255.85</ele><time>2014-03-19T11:56:10Z</time></trkpt><trkpt lat="51.7977906950" lon="-2.0478230808"><ele>255.37</ele><time>2014-03-19T11:56:26Z</time></trkpt><trkpt lat="51.7976534832" lon="-2.0481097419"><ele>255.37</ele><time>2014-03-19T11:56:41Z</time></trkpt><trkpt lat="51.7975352146" lon="-2.0483911224"><ele>254.41</ele><time>2014-03-19T11:56:57Z</time></trkpt><trkpt lat="51.7974415887" lon="-2.0486269891"><ele>253.44</ele><time>2014-03-19T11:57:12Z</time></trkpt><trkpt lat="51.7974072229" lon="-2.0487036835"><ele>252.96</ele><time>2014-03-19T11:57:17Z</time></trkpt><trkpt lat="51.7973855138" lon="-2.0487839822"><ele>254.41</ele><time>2014-03-19T11:57:24Z</time></trkpt><trkpt lat="51.7973456997" lon="-2.0488782786"><ele>253.44</ele><time>2014-03-19T11:57:38Z</time></trkpt><trkpt lat="51.7973591108" lon="-2.0489526261"><ele>253.93</ele><time>2014-03-19T11:57:46Z</time></trkpt><trkpt lat="51.7973912135" lon="-2.0492319949"><ele>254.41</ele><time>2014-03-19T11:58:03Z</time></trkpt><trkpt lat="51.7974851746" lon="-2.0494937617"><ele>254.89</ele><time>2014-03-19T11:58:21Z</time></trkpt><trkpt lat="51.7975229770" lon="-2.0495528542"><ele>254.89</ele><time>2014-03-19T11:58:26Z</time></trkpt><trkpt lat="51.7976780422" lon="-2.0496122818"><ele>255.85</ele><time>2014-03-19T11:58:41Z</time></trkpt><trkpt lat="51.7977481149" lon="-2.0495797601"><ele>255.37</ele><time>2014-03-19T11:58:56Z</time></trkpt><trkpt lat="51.7978213727" lon="-2.0495671034"><ele>256.33</ele><time>2014-03-19T11:59:02Z</time></trkpt><trkpt lat="51.7979709059" lon="-2.0495759044"><ele>257.29</ele><time>2014-03-19T11:59:16Z</time></trkpt><trkpt lat="51.7980426550" lon="-2.0498193987"><ele>258.25</ele><time>2014-03-19T11:59:36Z</time></trkpt><trkpt lat="51.7980243824" lon="-2.0499258488"><ele>257.77</ele><time>2014-03-19T11:59:43Z</time></trkpt><trkpt lat="51.7979620211" lon="-2.0500452071"><ele>256.81</ele><time>2014-03-19T11:59:52Z</time></trkpt><trkpt lat="51.7978342809" lon="-2.0502358954"><ele>255.85</ele><time>2014-03-19T12:00:09Z</time></trkpt><trkpt lat="51.7977761105" lon="-2.0504109934"><ele>256.33</ele><time>2014-03-19T12:00:22Z</time></trkpt><trkpt lat="51.7977401521" lon="-2.0504722651"><ele>255.85</ele><time>2014-03-19T12:00:26Z</time></trkpt><trkpt lat="51.7975980788" lon="-2.0507756062"><ele>255.37</ele><time>2014-03-19T12:00:43Z</time></trkpt><trkpt lat="51.7974626273" lon="-2.0510523766"><ele>253.93</ele><time>2014-03-19T12:00:58Z</time></trkpt><trkpt lat="51.7973486334" lon="-2.0513029955"><ele>253.44</ele><time>2014-03-19T12:01:13Z</time></trkpt><trkpt lat="51.7973399162" lon="-2.0514217671"><ele>252.48</ele><time>2014-03-19T12:01:25Z</time></trkpt><trkpt lat="51.7972284369" lon="-2.0517551992"><ele>252.96</ele><time>2014-03-19T12:01:42Z</time></trkpt><trkpt lat="51.7971471325" lon="-2.0518680196"><ele>253.44</ele><time>2014-03-19T12:01:51Z</time></trkpt><trkpt lat="51.7970277742" lon="-2.0521219075"><ele>253.93</ele><time>2014-03-19T12:02:08Z</time></trkpt><trkpt lat="51.7969479784" lon="-2.0521623082"><ele>253.93</ele><time>2014-03-19T12:02:18Z</time></trkpt><trkpt lat="51.7968346551" lon="-2.0520739630"><ele>254.41</ele><time>2014-03-19T12:02:32Z</time></trkpt><trkpt lat="51.7966830265" lon="-2.0519286208"><ele>254.41</ele><time>2014-03-19T12:02:47Z</time></trkpt><trkpt lat="51.7965783365" lon="-2.0518209971"><ele>255.37</ele><time>2014-03-19T12:02:58Z</time></trkpt><trkpt lat="51.7964109499" lon="-2.0516339969"><ele>256.33</ele><time>2014-03-19T12:03:15Z</time></trkpt><trkpt lat="51.7962064315" lon="-2.0514127985"><ele>257.29</ele><time>2014-03-19T12:03:35Z</time></trkpt><trkpt lat="51.7960166652" lon="-2.0512339287"><ele>257.77</ele><time>2014-03-19T12:03:54Z</time></trkpt><trkpt lat="51.7958676349" lon="-2.0511052664"><ele>257.29</ele><time>2014-03-19T12:04:09Z</time></trkpt><trkpt lat="51.7956319358" lon="-2.0510401390"><ele>257.77</ele><time>2014-03-19T12:04:26Z</time></trkpt><trkpt lat="51.7954163533" lon="-2.0510771871"><ele>257.77</ele><time>2014-03-19T12:04:43Z</time></trkpt><trkpt lat="51.7951974180" lon="-2.0511793625"><ele>257.77</ele><time>2014-03-19T12:05:00Z</time></trkpt><trkpt lat="51.7950528301" lon="-2.0512492675"><ele>257.77</ele><time>2014-03-19T12:05:13Z</time></trkpt><trkpt lat="51.7949982639" lon="-2.0512350183"><ele>258.25</ele><time>2014-03-19T12:05:18Z</time></trkpt><trkpt lat="51.7949467991" lon="-2.0510942861"><ele>257.77</ele><time>2014-03-19T12:05:27Z</time></trkpt><trkpt lat="51.7949447036" lon="-2.0507171843"><ele>256.81</ele><time>2014-03-19T12:05:45Z</time></trkpt><trkpt lat="51.7950015329" lon="-2.0504549146"><ele>257.29</ele><time>2014-03-19T12:06:02Z</time></trkpt><trkpt lat="51.7950076517" lon="-2.0504172798"><ele>257.29</ele><time>2014-03-19T12:06:23Z</time></trkpt><trkpt lat="51.7950082384" lon="-2.0504008513"><ele>257.29</ele><time>2014-03-19T12:06:24Z</time></trkpt><trkpt lat="51.7950224038" lon="-2.0503662340"><ele>258.25</ele><time>2014-03-19T12:06:26Z</time></trkpt><trkpt lat="51.7951189633" lon="-2.0502952393"><ele>257.29</ele><time>2014-03-19T12:06:39Z</time></trkpt><trkpt lat="51.7951380741" lon="-2.0502558444"><ele>257.77</ele><time>2014-03-19T12:06:59Z</time></trkpt><trkpt lat="51.7951340508" lon="-2.0502639748"><ele>257.77</ele><time>2014-03-19T12:07:21Z</time></trkpt><trkpt lat="51.7951378226" lon="-2.0502717700"><ele>258.25</ele><time>2014-03-19T12:07:45Z</time></trkpt><trkpt lat="51.7951384932" lon="-2.0502724405"><ele>246.23</ele><time>2014-03-19T12:07:52Z</time></trkpt><trkpt lat="51.7951383255" lon="-2.0502722729"><ele>264.02</ele><time>2014-03-19T12:07:53Z</time></trkpt><trkpt lat="51.7951379903" lon="-2.0502720214"><ele>258.73</ele><time>2014-03-19T12:07:54Z</time></trkpt><trkpt lat="51.7951405048" lon="-2.0502731949"><ele>258.25</ele><time>2014-03-19T12:08:14Z</time></trkpt><trkpt lat="51.7952779680" lon="-2.0501698460"><ele>257.77</ele><time>2014-03-19T12:08:31Z</time></trkpt><trkpt lat="51.7952986713" lon="-2.0501523279"><ele>257.77</ele><time>2014-03-19T12:08:34Z</time></trkpt><trkpt lat="51.7954609450" lon="-2.0500249229"><ele>258.25</ele><time>2014-03-19T12:08:51Z</time></trkpt><trkpt lat="51.7954751942" lon="-2.0500195585"><ele>258.25</ele><time>2014-03-19T12:09:04Z</time></trkpt></trkseg></trk></gpx>